Time;durP1;ratioP1;P1;durP2;ratioP2;P2;SDS_P1;SDS_P2;PMS_P1;PMS_P2;Temp;Humidity;BMP_temperature;BMP_pressure;BME280_temperature;BME280_humidity;BME280_pressure;Samples;Min_cycle;Max_cycle;Signal;HPM_P1;HPM_P2
2022/05/31 00:02:05;;;;;;;0.60;0.10;;;12.80;99.90;;;;;;5055752;28;20474;-70
2022/05/31 00:04:34;;;;;;;0.60;0.10;;;12.70;99.90;;;;;;5058583;28;20461;-70
2022/05/31 00:07:04;;;;;;;0.60;0.10;;;12.80;99.90;;;;;;5052937;28;20506;-70
2022/05/31 00:09:32;;;;;;;0.60;0.20;;;12.80;99.90;;;;;;5051515;28;20489;-68
2022/05/31 00:12:00;;;;;;;0.60;0.10;;;12.90;99.90;;;;;;5039233;28;20467;-68
2022/05/31 00:14:28;;;;;;;0.60;0.10;;;12.90;99.90;;;;;;5033078;28;20989;-69
2022/05/31 00:16:56;;;;;;;0.60;0.10;;;12.90;99.90;;;;;;5034088;28;20578;-68
2022/05/31 00:19:24;;;;;;;0.60;0.30;;;12.90;99.90;;;;;;5035477;28;20553;-68
2022/05/31 00:21:57;;;;;;;0.60;0.10;;;13.00;99.90;;;;;;5034319;28;20541;-69
2022/05/31 00:24:26;;;;;;;0.60;0.10;;;;;;;;;;5045072;28;20449;-69
2022/05/31 00:26:54;;;;;;;0.60;0.10;;;12.90;99.90;;;;;;5045884;28;20439;-70
2022/05/31 00:29:22;;;;;;;0.60;0.10;;;12.80;99.90;;;;;;5032576;28;20444;-71
2022/05/31 00:31:51;;;;;;;0.60;0.10;;;12.80;99.90;;;;;;5045816;28;20479;-69
2022/05/31 00:34:20;;;;;;;0.60;0.10;;;12.80;99.90;;;;;;5052393;28;20475;-69
2022/05/31 00:36:49;;;;;;;0.60;0.10;;;12.80;99.90;;;;;;5052014;28;20492;-69
2022/05/31 00:39:18;;;;;;;0.60;0.10;;;12.70;99.90;;;;;;5052757;28;20855;-70
2022/05/31 00:41:59;;;;;;;0.60;0.10;;;12.70;99.90;;;;;;5052065;28;20482;-69
2022/05/31 00:44:28;;;;;;;0.60;0.10;;;12.60;99.90;;;;;;5048309;28;20447;-68
2022/05/31 00:46:59;;;;;;;0.60;0.10;;;12.70;99.90;;;;;;5031519;28;20894;-70
2022/05/31 00:49:32;;;;;;;0.60;0.10;;;12.70;99.90;;;;;;5031986;28;20525;-70
2022/05/31 00:52:05;;;;;;;0.60;0.10;;;12.60;99.90;;;;;;5031940;28;20463;-69
2022/05/31 00:54:37;;;;;;;0.60;0.10;;;12.60;99.90;;;;;;5031992;28;20559;-67
2022/05/31 00:57:06;;;;;;;0.60;0.10;;;12.60;99.90;;;;;;5031686;28;20486;-70
2022/05/31 00:59:41;;;;;;;0.60;0.10;;;12.60;99.90;;;;;;5047007;28;20460;-69
2022/05/31 01:02:09;;;;;;;0.60;0.10;;;12.60;99.90;;;;;;5051760;28;20467;-71
2022/05/31 01:04:41;;;;;;;0.70;0.30;;;12.60;99.90;;;;;;5051005;28;20477;-71
2022/05/31 01:07:09;;;;;;;0.60;0.10;;;12.60;99.90;;;;;;5051665;28;20442;-71
2022/05/31 01:09:37;;;;;;;0.60;0.10;;;12.60;99.90;;;;;;5051793;28;20467;-69
2022/05/31 01:12:08;;;;;;;0.60;0.10;;;12.60;99.90;;;;;;5046471;28;20475;-70
2022/05/31 01:14:38;;;;;;;0.60;0.10;;;12.60;99.90;;;;;;5032116;28;20802;-68
2022/05/31 01:17:11;;;;;;;0.60;0.10;;;12.50;99.90;;;;;;5031859;28;20454;-71
2022/05/31 01:19:57;;;;;;;2.40;2.20;;;12.50;99.90;;;;;;5031878;28;20449;-68
2022/05/31 01:22:34;;;;;;;0.60;0.10;;;12.50;99.90;;;;;;5031892;28;20810;-70
2022/05/31 01:25:11;;;;;;;0.60;0.10;;;12.50;99.90;;;;;;5031949;28;20832;-69
2022/05/31 01:27:46;;;;;;;0.60;0.10;;;12.50;99.90;;;;;;5037029;28;20431;-70
2022/05/31 01:30:15;;;;;;;0.60;0.20;;;12.40;99.90;;;;;;5030791;28;20945;-69
2022/05/31 01:32:48;;;;;;;0.60;0.20;;;12.50;99.90;;;;;;5029901;28;20459;-69
2022/05/31 01:35:23;;;;;;;0.60;0.10;;;12.40;99.90;;;;;;5032341;28;20970;-69
2022/05/31 01:37:58;;;;;;;0.60;0.10;;;12.40;99.90;;;;;;5030615;28;20482;-68
2022/05/31 01:40:33;;;;;;;0.60;0.10;;;12.40;99.90;;;;;;5031102;28;20933;-69
2022/05/31 01:43:01;;;;;;;0.60;0.10;;;12.30;99.90;;;;;;5031303;28;20435;-68
2022/05/31 01:45:34;;;;;;;0.60;0.10;;;12.30;99.90;;;;;;5030433;28;20447;-68
2022/05/31 01:48:05;;;;;;;0.60;0.10;;;12.30;99.90;;;;;;5030718;28;20439;-68
2022/05/31 01:50:34;;;;;;;0.60;0.10;;;12.30;99.90;;;;;;5042351;28;20570;-68
2022/05/31 01:53:04;;;;;;;0.60;0.10;;;12.30;99.90;;;;;;5035919;28;20447;-69
2022/05/31 01:55:34;;;;;;;0.60;0.10;;;12.30;99.90;;;;;;5029787;28;20820;-69
2022/05/31 01:58:06;;;;;;;0.60;0.10;;;12.30;99.90;;;;;;5029706;28;20479;-69
2022/05/31 02:00:34;;;;;;;0.60;0.10;;;12.30;99.90;;;;;;5030924;28;20451;-69
2022/05/31 02:03:05;;;;;;;0.60;0.10;;;12.30;99.90;;;;;;5070948;22;20503;-68
2022/05/31 02:05:33;;;;;;;0.60;0.10;;;12.30;99.90;;;;;;5087710;28;20440;-65
2022/05/31 02:08:04;;;;;;;0.60;0.10;;;12.30;99.90;;;;;;5079398;28;20442;-67
2022/05/31 02:10:33;;;;;;;0.60;0.10;;;12.40;99.90;;;;;;5073532;28;20437;-66
2022/05/31 02:13:00;;;;;;;0.60;0.10;;;12.40;99.90;;;;;;5071761;28;20827;-67
2022/05/31 02:15:28;;;;;;;0.80;0.73;;;12.40;99.90;;;;;;5070439;28;20440;-65
2022/05/31 02:17:56;;;;;;;0.60;0.10;;;12.30;99.90;;;;;;5087159;28;20488;-66
2022/05/31 02:20:24;;;;;;;0.60;0.10;;;12.30;99.90;;;;;;5091600;28;20444;-67
2022/05/31 02:22:52;;;;;;;0.60;0.10;;;12.30;99.90;;;;;;5090863;28;20476;-68
2022/05/31 02:25:21;;;;;;;0.60;0.10;;;12.30;99.90;;;;;;5091427;28;20464;-66
2022/05/31 02:27:49;;;;;;;0.60;0.10;;;12.30;99.90;;;;;;5093771;28;20840;-66
2022/05/31 02:30:17;;;;;;;8.10;7.33;;;12.30;99.90;;;;;;5094946;28;20466;-66
2022/05/31 02:32:45;;;;;;;0.60;0.10;;;12.30;99.90;;;;;;5093553;28;20461;-66
2022/05/31 02:35:13;;;;;;;0.60;0.10;;;12.30;99.90;;;;;;5091084;28;20449;-66
2022/05/31 02:37:41;;;;;;;0.60;0.10;;;12.30;99.90;;;;;;5090770;28;20440;-67
2022/05/31 02:40:09;;;;;;;0.60;0.10;;;12.20;99.90;;;;;;5091386;28;20452;-67
2022/05/31 02:42:39;;;;;;;0.60;0.10;;;12.20;99.90;;;;;;5098374;28;20467;-67
2022/05/31 02:45:10;;;;;;;0.60;0.10;;;12.20;99.90;;;;;;5098286;28;20570;-67
2022/05/31 02:47:39;;;;;;;0.60;0.10;;;12.20;99.90;;;;;;5093044;28;20452;-67
2022/05/31 02:50:08;;;;;;;0.60;0.10;;;12.30;99.90;;;;;;5091317;28;20444;-66
2022/05/31 02:52:36;;;;;;;0.60;0.10;;;12.20;99.90;;;;;;5091031;28;20966;-67
2022/05/31 02:55:05;;;;;;;0.60;0.10;;;12.20;99.90;;;;;;5091030;28;20556;-67
2022/05/31 02:57:33;;;;;;;0.60;0.10;;;12.20;99.90;;;;;;5089959;28;20453;-69
2022/05/31 03:00:02;;;;;;;0.60;0.10;;;12.10;99.90;;;;;;5090924;28;20495;-65
2022/05/31 03:02:30;;;;;;;0.60;0.10;;;12.20;99.90;;;;;;5090711;28;21017;-65
2022/05/31 03:04:58;;;;;;;0.60;0.10;;;12.20;99.90;;;;;;5090742;28;20812;-65
2022/05/31 03:07:26;;;;;;;0.60;0.10;;;12.20;99.90;;;;;;5090414;28;20443;-67
2022/05/31 03:09:53;;;;;;;0.60;0.10;;;12.20;99.90;;;;;;5090805;28;20441;-67
2022/05/31 03:12:25;;;;;;;0.60;0.10;;;12.20;99.90;;;;;;5089777;28;20464;-69
2022/05/31 03:14:56;;;;;;;0.60;0.10;;;12.10;99.90;;;;;;5090783;28;20834;-66
2022/05/31 03:17:31;;;;;;;0.60;0.10;;;12.10;99.90;;;;;;5090153;28;20440;-67
2022/05/31 03:20:07;;;;;;;0.60;0.10;;;12.00;99.90;;;;;;5092020;28;21051;-69
2022/05/31 03:22:39;;;;;;;0.60;0.10;;;12.00;99.90;;;;;;5091461;28;20471;-66
2022/05/31 03:25:13;;;;;;;0.60;0.10;;;11.90;99.90;;;;;;5091425;28;20441;-66
2022/05/31 03:27:41;;;;;;;0.60;0.10;;;11.90;99.90;;;;;;5092193;28;20436;-67
2022/05/31 03:30:10;;;;;;;0.60;0.10;;;11.80;99.90;;;;;;5094482;28;20439;-66
2022/05/31 03:32:40;;;;;;;0.60;0.10;;;11.80;99.90;;;;;;5093940;28;20478;-70
2022/05/31 03:35:09;;;;;;;0.60;0.10;;;11.80;99.90;;;;;;5093655;28;20437;-66
2022/05/31 03:37:38;;;;;;;0.60;0.10;;;11.80;99.90;;;;;;5093424;28;20440;-67
2022/05/31 03:40:08;;;;;;;0.60;0.10;;;11.90;99.90;;;;;;5093577;28;20476;-67
2022/05/31 03:42:39;;;;;;;0.60;0.10;;;11.90;99.90;;;;;;5093854;28;20458;-69
2022/05/31 03:45:08;;;;;;;0.60;0.10;;;11.90;99.90;;;;;;5094240;28;20452;-67
2022/05/31 03:47:36;;;;;;;0.60;0.10;;;11.90;99.90;;;;;;5093955;28;20527;-66
2022/05/31 03:50:06;;;;;;;0.60;0.10;;;12.00;99.90;;;;;;5093909;28;20443;-66
2022/05/31 03:52:33;;;;;;;0.60;0.10;;;12.00;99.90;;;;;;5093819;28;20494;-66
2022/05/31 03:55:01;;;;;;;0.60;0.10;;;12.00;99.90;;;;;;5093908;28;20843;-67
2022/05/31 03:57:29;;;;;;;0.60;0.10;;;12.00;99.90;;;;;;5092423;28;20440;-66
2022/05/31 03:59:57;;;;;;;0.60;0.10;;;11.90;99.90;;;;;;5088067;28;20842;-67
2022/05/31 04:02:25;;;;;;;0.60;0.10;;;11.90;99.90;;;;;;5093712;28;20469;-66
2022/05/31 04:04:52;;;;;;;0.60;0.10;;;11.90;99.90;;;;;;5092885;28;20441;-68
2022/05/31 04:07:22;;;;;;;0.60;0.10;;;11.90;99.90;;;;;;5092954;28;20437;-66
2022/05/31 04:09:49;;;;;;;0.60;0.10;;;12.00;99.90;;;;;;5093093;28;20912;-67
2022/05/31 04:12:17;;;;;;;0.60;0.10;;;12.10;99.90;;;;;;5090248;28;20475;-67
2022/05/31 04:14:45;;;;;;;0.60;0.10;;;12.10;99.90;;;;;;5093423;28;20439;-68
2022/05/31 04:17:13;;;;;;;0.60;0.10;;;12.10;99.90;;;;;;5094619;28;21129;-65
2022/05/31 04:19:40;;;;;;;0.60;0.10;;;12.00;99.90;;;;;;5094448;28;20531;-66
2022/05/31 04:22:08;;;;;;;0.60;0.30;;;12.00;99.90;;;;;;5093031;28;20475;-66
2022/05/31 04:24:37;;;;;;;0.60;0.10;;;12.00;99.90;;;;;;5090862;28;20461;-66
2022/05/31 04:27:06;;;;;;;0.60;0.10;;;12.10;99.90;;;;;;5092147;28;20959;-69
2022/05/31 04:29:36;;;;;;;0.60;0.10;;;12.10;99.90;;;;;;5093830;28;20516;-66
2022/05/31 04:32:05;;;;;;;0.60;0.10;;;12.10;99.90;;;;;;5092439;28;20484;-67
2022/05/31 04:34:33;;;;;;;0.60;0.10;;;12.10;99.90;;;;;;5092630;28;20548;-66
2022/05/31 04:37:00;;;;;;;0.60;0.10;;;12.10;99.90;;;;;;5091736;28;20441;-66
2022/05/31 04:39:28;;;;;;;0.60;0.10;;;12.10;99.90;;;;;;5091513;28;20525;-65
2022/05/31 04:41:58;;;;;;;0.60;0.10;;;12.10;99.90;;;;;;5092900;28;20870;-66
2022/05/31 04:44:26;;;;;;;0.60;0.10;;;12.00;99.90;;;;;;5092130;28;20450;-68
2022/05/31 04:46:53;;;;;;;0.60;0.10;;;12.00;99.90;;;;;;5092511;28;20445;-64
2022/05/31 04:49:21;;;;;;;0.60;0.10;;;11.90;99.90;;;;;;5092559;28;20449;-66
2022/05/31 04:51:49;;;;;;;0.60;0.10;;;11.90;99.90;;;;;;5092133;28;21160;-65
2022/05/31 04:54:17;;;;;;;0.60;0.10;;;11.90;99.90;;;;;;5092477;28;20441;-66
2022/05/31 04:56:46;;;;;;;0.60;0.10;;;11.90;99.90;;;;;;5091255;28;20510;-69
2022/05/31 04:59:15;;;;;;;0.70;0.37;;;11.90;99.90;;;;;;5091822;28;20982;-67
2022/05/31 05:01:42;;;;;;;0.60;0.10;;;11.90;99.90;;;;;;5092947;28;21008;-66
2022/05/31 05:04:10;;;;;;;0.60;0.10;;;11.90;99.90;;;;;;5092829;28;20439;-68
2022/05/31 05:06:38;;;;;;;0.60;0.10;;;12.00;99.90;;;;;;5093291;28;21071;-65
2022/05/31 05:09:07;;;;;;;0.60;0.10;;;12.00;99.90;;;;;;5093716;28;20447;-65
2022/05/31 05:11:35;;;;;;;0.60;0.10;;;12.10;99.90;;;;;;5093441;28;20586;-68
2022/05/31 05:14:03;;;;;;;0.60;0.10;;;12.10;99.90;;;;;;5092872;28;20447;-66
2022/05/31 05:16:32;;;;;;;0.60;0.10;;;12.20;99.90;;;;;;5082031;28;20445;-69
2022/05/31 05:19:00;;;;;;;0.60;0.10;;;12.30;99.90;;;;;;5077931;28;20452;-66
2022/05/31 05:21:28;;;;;;;0.60;0.10;;;12.30;99.90;;;;;;5092446;28;20468;-67
2022/05/31 05:23:56;;;;;;;0.60;0.10;;;12.30;99.90;;;;;;5086452;28;20476;-69
2022/05/31 05:26:23;;;;;;;0.60;0.10;;;12.30;99.90;;;;;;5084316;28;20853;-66
2022/05/31 05:31:40;;;;;;;0.60;0.10;;;12.30;99.90;;;;;;5092353;28;20461;-71
2022/05/31 05:34:08;;;;;;;0.60;0.10;;;12.40;99.90;;;;;;5091727;28;20454;-69
2022/05/31 05:36:36;;;;;;;0.60;0.10;;;12.40;99.90;;;;;;5091043;28;20829;-66
2022/05/31 05:39:10;;;;;;;0.60;0.10;;;12.60;1.00;;;;;;5091319;28;20960;-68
2022/05/31 05:41:39;;;;;;;0.60;0.10;;;12.90;99.90;;;;;;5092659;28;21002;-67
2022/05/31 05:44:07;;;;;;;0.60;0.10;;;12.90;99.90;;;;;;5091389;28;20443;-70
2022/05/31 05:46:35;;;;;;;0.60;0.40;;;13.00;99.90;;;;;;5092250;28;20441;-67
2022/05/31 05:49:04;;;;;;;0.60;0.10;;;13.00;99.90;;;;;;5096501;28;20519;-72
2022/05/31 05:51:34;;;;;;;4.83;0.63;;;13.20;99.90;;;;;;5096504;28;20970;-70
2022/05/31 05:54:02;;;;;;;0.60;0.10;;;13.30;99.90;;;;;;5090741;28;20445;-70
2022/05/31 05:56:31;;;;;;;0.60;0.10;;;13.30;99.90;;;;;;5091639;28;20535;-69
2022/05/31 05:58:59;;;;;;;0.60;0.10;;;13.30;99.90;;;;;;5092080;28;20440;-71
2022/05/31 06:01:32;;;;;;;0.60;0.10;;;13.30;99.90;;;;;;5091385;28;21002;-68
2022/05/31 06:04:26;;;;;;;0.60;0.10;;;11.90;99.90;;;;;;5092728;28;20438;-73
2022/05/31 06:07:02;;;;;;;0.60;0.10;;;13.30;99.90;;;;;;5093724;28;20498;-71
2022/05/31 06:09:33;;;;;;;0.60;0.10;;;13.20;99.90;;;;;;5092657;28;20581;-69
2022/05/31 06:12:05;;;;;;;0.60;0.10;;;13.40;99.90;;;;;;5093965;28;20464;-71
2022/05/31 06:14:37;;;;;;;0.60;0.20;;;13.40;99.90;;;;;;5084528;28;20506;-69
2022/05/31 06:17:10;;;;;;;0.60;0.10;;;13.50;99.90;;;;;;5074057;28;20956;-70
2022/05/31 06:19:47;;;;;;;0.60;0.10;;;13.60;99.90;;;;;;5092285;28;20849;-70
2022/05/31 06:22:15;;;;;;;0.60;0.10;;;13.70;99.90;;;;;;5091468;28;20487;-72
2022/05/31 06:24:44;;;;;;;0.60;0.10;;;13.70;99.90;;;;;;5077921;28;20460;-70
2022/05/31 06:27:11;;;;;;;0.60;0.10;;;13.70;99.90;;;;;;5071653;28;20460;-69
2022/05/31 06:29:40;;;;;;;0.60;0.10;;;13.70;99.90;;;;;;5071188;28;20441;-70
2022/05/31 06:32:08;;;;;;;0.60;0.10;;;13.80;99.90;;;;;;5070761;28;20467;-69
2022/05/31 06:34:39;;;;;;;0.60;0.10;;;13.80;99.90;;;;;;5076064;28;20768;-70
2022/05/31 06:37:11;;;;;;;0.60;0.10;;;13.80;99.90;;;;;;5091195;28;20535;-73
2022/05/31 06:39:40;;;;;;;0.60;0.10;;;13.70;99.90;;;;;;5092037;28;20467;-68
2022/05/31 06:42:09;;;;;;;0.60;0.10;;;13.80;99.90;;;;;;5091650;28;20469;-71
2022/05/31 06:44:38;;;;;;;0.60;0.10;;;13.80;99.90;;;;;;5091710;28;20818;-68
2022/05/31 06:47:06;;;;;;;0.60;0.10;;;13.80;99.90;;;;;;5090982;28;20451;-70
2022/05/31 06:49:35;;;;;;;0.60;0.10;;;13.80;99.90;;;;;;5090903;28;20445;-70
2022/05/31 06:57:41;;;;;;;0.60;0.10;;;14.00;99.90;;;;;;5091126;28;20551;-68
2022/05/31 07:00:12;;;;;;;0.60;0.10;;;13.90;99.90;;;;;;5091285;28;20476;-70
2022/05/31 07:02:40;;;;;;;0.60;0.10;;;14.00;99.90;;;;;;5093761;28;20483;-70
2022/05/31 07:05:10;;;;;;;0.70;0.53;;;14.00;99.90;;;;;;5094178;28;20437;-71
2022/05/31 07:07:38;;;;;;;0.60;0.10;;;14.00;99.90;;;;;;5094539;28;20455;-71
2022/05/31 07:10:10;;;;;;;0.60;0.10;;;14.10;99.90;;;;;;5094284;28;20466;-71
2022/05/31 07:12:40;;;;;;;0.60;0.20;;;14.20;99.90;;;;;;5094715;28;20467;-69
2022/05/31 07:15:09;;;;;;;0.60;0.10;;;14.20;99.90;;;;;;5083176;28;20468;-68
2022/05/31 07:17:37;;;;;;;0.60;0.10;;;14.40;99.90;;;;;;5074931;28;20437;-68
2022/05/31 07:20:05;;;;;;;0.60;0.10;;;14.50;99.90;;;;;;5074485;28;20444;-70
2022/05/31 07:22:36;;;;;;;0.73;0.43;;;14.60;99.90;;;;;;5073678;28;20484;-69
2022/05/31 07:25:05;;;;;;;0.60;0.10;;;14.70;99.90;;;;;;5074468;28;20456;-68
2022/05/31 07:27:34;;;;;;;0.60;0.20;;;14.70;99.90;;;;;;5075857;28;20437;-70
2022/05/31 07:30:02;;;;;;;0.60;0.10;;;14.70;99.90;;;;;;5075073;28;20439;-70
2022/05/31 07:32:31;;;;;;;0.60;0.10;;;14.70;99.90;;;;;;5075971;28;20545;-72
2022/05/31 07:35:19;;;;;;;0.60;0.10;;;14.70;99.90;;;;;;5076051;28;20443;-71
2022/05/31 07:37:47;;;;;;;0.60;0.10;;;14.70;99.90;;;;;;5074650;28;20443;-72
2022/05/31 07:40:14;;;;;;;0.60;0.10;;;15.00;99.90;;;;;;5074266;28;20797;-71
2022/05/31 07:42:44;;;;;;;0.60;0.10;;;15.10;99.90;;;;;;5076688;28;20598;-69
2022/05/31 07:45:12;;;;;;;0.60;0.10;;;15.10;99.90;;;;;;5076045;28;20467;-69
2022/05/31 07:47:40;;;;;;;0.60;0.10;;;15.30;99.90;;;;;;5074273;28;20444;-70
2022/05/31 07:50:11;;;;;;;0.60;0.10;;;15.40;99.90;;;;;;5074046;28;20439;-68
2022/05/31 07:52:38;;;;;;;0.60;0.10;;;15.40;99.90;;;;;;5074707;28;20460;-70
2022/05/31 07:55:08;;;;;;;0.60;0.10;;;15.50;99.90;;;;;;5088601;28;20449;-70
2022/05/31 08:00:23;;;;;;;0.60;0.13;;;15.60;99.90;;;;;;5093524;28;20440;-70
2022/05/31 08:02:51;;;;;;;0.60;0.10;;;;;;;;;;5093586;28;20461;-69
2022/05/31 08:05:19;;;;;;;0.60;0.10;;;15.80;99.90;;;;;;5105364;22;20493;-69
2022/05/31 08:07:47;;;;;;;0.60;0.10;;;15.80;99.90;;;;;;5072562;28;21037;-68
2022/05/31 08:10:17;;;;;;;0.60;0.10;;;15.90;99.90;;;;;;5071547;28;20458;-68
2022/05/31 08:12:44;;;;;;;0.60;0.10;;;16.00;99.90;;;;;;5067922;28;20539;-68
2022/05/31 08:15:13;;;;;;;0.60;0.10;;;16.10;99.90;;;;;;5051412;28;20467;-69
2022/05/31 08:17:42;;;;;;;0.60;0.10;;;16.10;99.90;;;;;;5033008;28;20449;-68
2022/05/31 08:20:11;;;;;;;0.60;0.20;;;16.10;99.90;;;;;;5033383;28;20487;-68
2022/05/31 08:22:39;;;;;;;0.60;0.10;;;16.20;99.90;;;;;;5032656;28;21000;-68
2022/05/31 08:25:08;;;;;;;0.60;0.10;;;16.20;99.90;;;;;;5035159;28;20524;-68
2022/05/31 08:27:36;;;;;;;0.60;0.10;;;16.20;99.90;;;;;;5041729;28;20450;-68
2022/05/31 08:30:06;;;;;;;0.60;0.10;;;16.20;99.90;;;;;;5033014;28;20447;-68
2022/05/31 08:32:36;;;;;;;0.60;0.10;;;16.20;99.90;;;;;;5032886;28;20503;-71
2022/05/31 08:35:07;;;;;;;0.60;0.10;;;14.90;99.90;;;;;;5040254;28;20474;-69
2022/05/31 08:37:36;;;;;;;0.60;0.10;;;16.40;99.90;;;;;;5051651;28;20435;-69
2022/05/31 08:40:06;;;;;;;0.60;0.10;;;16.40;99.90;;;;;;5052091;28;20455;-69
2022/05/31 08:42:49;;;;;;;0.60;0.10;;;16.60;99.90;;;;;;5049688;28;20936;-67
2022/05/31 08:45:37;;;;;;;0.60;0.10;;;16.70;99.90;;;;;;5032358;28;20526;-68
2022/05/31 08:48:11;;;;;;;0.60;0.10;;;16.80;99.90;;;;;;5032444;28;20442;-71
2022/05/31 08:53:41;;;;;;;0.60;0.10;;;17.00;99.90;;;;;;5053680;28;20450;-69
2022/05/31 08:59:04;;;;;;;1.60;1.50;;;17.20;99.90;;;;;;5046774;28;20874;-69
2022/05/31 09:01:37;;;;;;;0.60;0.10;;;17.20;99.90;;;;;;5051074;28;20485;-69
2022/05/31 09:04:14;;;;;;;0.60;0.20;;;17.20;99.90;;;;;;5052706;28;20457;-69
2022/05/31 09:06:48;;;;;;;0.60;0.20;;;17.30;99.90;;;;;;5052988;28;20473;-68
2022/05/31 09:09:19;;;;;;;0.60;0.10;;;17.40;99.90;;;;;;5041975;28;20845;-68
2022/05/31 09:12:00;;;;;;;0.60;0.10;;;17.40;99.90;;;;;;5037838;28;20883;-71
2022/05/31 09:14:40;;;;;;;0.70;0.30;;;17.70;99.90;;;;;;5051559;28;20952;-70
2022/05/31 09:17:15;;;;;;;0.60;0.10;;;17.70;99.90;;;;;;5039776;28;20451;-70
2022/05/31 09:19:50;;;;;;;0.60;0.10;;;18.00;99.90;;;;;;5039841;28;20454;-72
2022/05/31 09:22:26;;;;;;;0.60;0.20;;;18.10;99.90;;;;;;5048350;28;20479;-69
2022/05/31 09:24:54;;;;;;;0.60;0.10;;;18.20;99.90;;;;;;5034565;28;20469;-72
2022/05/31 09:27:28;;;;;;;0.60;0.10;;;18.30;99.90;;;;;;5051420;28;20442;-72
2022/05/31 09:30:04;;;;;;;0.60;0.10;;;18.40;99.90;;;;;;5046215;28;20804;-70
2022/05/31 09:32:47;;;;;;;0.60;0.10;;;18.50;99.90;;;;;;5041608;28;20554;-70
2022/05/31 09:35:29;;;;;;;0.60;0.10;;;18.60;99.90;;;;;;5038013;28;20839;-68
2022/05/31 09:38:16;;;;;;;0.60;0.10;;;18.60;99.90;;;;;;5048477;28;20537;-68
2022/05/31 09:40:47;;;;;;;0.60;0.10;;;18.80;99.90;;;;;;5042891;28;20454;-71
2022/05/31 09:43:24;;;;;;;0.60;0.10;;;18.80;99.90;;;;;;5041287;28;20470;-71
2022/05/31 09:46:01;;;;;;;0.60;0.20;;;18.70;99.90;;;;;;5039963;28;20522;-71
2022/05/31 09:48:29;;;;;;;0.60;0.10;;;18.70;99.90;;;;;;5034542;28;20788;-68
2022/05/31 09:51:02;;;;;;;0.60;0.20;;;18.80;99.90;;;;;;5051872;28;20478;-72
2022/05/31 09:59:09;;;;;;;0.70;0.20;;;18.90;99.90;;;;;;5053719;28;20474;-72
2022/05/31 10:01:43;;;;;;;0.60;0.10;;;18.90;99.90;;;;;;5052780;28;20537;-72
2022/05/31 10:04:15;;;;;;;0.60;0.10;;;18.90;99.90;;;;;;5048605;28;20455;-73
2022/05/31 10:06:56;;;;;;;0.60;0.10;;;18.90;99.90;;;;;;5047233;28;20498;-71
2022/05/31 10:09:33;;;;;;;0.60;0.20;;;18.90;99.90;;;;;;5045616;28;20502;-72
2022/05/31 10:12:17;;;;;;;0.60;0.20;;;19.00;99.90;;;;;;5043140;28;20455;-73
2022/05/31 10:14:47;;;;;;;0.60;0.10;;;19.00;99.90;;;;;;5051467;28;20848;-73
2022/05/31 10:17:33;;;;;;;0.60;0.10;;;19.00;99.90;;;;;;5043481;28;20883;-72
2022/05/31 10:20:16;;;;;;;0.60;0.10;;;19.00;99.90;;;;;;5032317;28;20497;-71
2022/05/31 10:23:06;;;;;;;0.60;0.10;;;19.00;99.90;;;;;;5031559;28;20481;-73
2022/05/31 10:25:40;;;;;;;0.60;0.10;;;19.10;99.90;;;;;;5029311;28;20467;-73
2022/05/31 10:28:12;;;;;;;0.60;0.10;;;19.10;99.90;;;;;;5045166;28;20462;-72
2022/05/31 10:30:41;;;;;;;0.60;0.10;;;19.10;99.90;;;;;;5047622;28;20470;-74
2022/05/31 10:33:12;;;;;;;0.60;0.10;;;19.20;99.90;;;;;;5043021;28;20439;-73
2022/05/31 10:35:43;;;;;;;0.60;0.10;;;19.50;99.90;;;;;;5032604;28;21016;-73
2022/05/31 10:38:26;;;;;;;0.60;0.20;;;19.60;99.90;;;;;;5034803;28;20952;-72
2022/05/31 10:41:00;;;;;;;0.70;0.20;;;19.90;99.90;;;;;;5041322;28;20453;-71
2022/05/31 10:43:38;;;;;;;0.70;0.10;;;19.90;99.90;;;;;;5046939;28;21023;-71
2022/05/31 10:46:11;;;;;;;0.60;0.20;;;20.20;99.90;;;;;;5044596;28;20521;-70
2022/05/31 10:48:47;;;;;;;0.70;0.23;;;20.20;99.90;;;;;;5037760;28;20497;-72
2022/05/31 10:51:22;;;;;;;0.67;0.10;;;20.20;99.90;;;;;;5036406;28;20443;-71
2022/05/31 10:54:12;;;;;;;0.70;0.20;;;20.10;99.90;;;;;;5038331;28;20949;-71
2022/05/31 10:56:51;;;;;;;0.70;0.10;;;20.30;99.90;;;;;;5045512;28;20473;-71
2022/05/31 10:59:30;;;;;;;0.70;0.20;;;20.50;99.90;;;;;;5038094;28;20447;-73
2022/05/31 11:02:21;;;;;;;0.70;0.10;;;20.70;99.90;;;;;;5034391;28;20447;-75
2022/05/31 11:04:57;;;;;;;0.70;0.10;;;21.00;99.90;;;;;;5035707;28;20451;-75
2022/05/31 11:07:41;;;;;;;0.70;0.10;;;21.00;99.90;;;;;;5045380;28;20527;-73
2022/05/31 11:13:28;;;;;;;0.70;0.10;;;21.00;99.90;;;;;;5055876;28;20462;-73
2022/05/31 11:16:05;;;;;;;0.70;0.10;;;21.00;99.90;;;;;;5054384;28;20474;-74
2022/05/31 11:18:56;;;;;;;0.70;0.20;;;21.10;99.90;;;;;;5046345;28;20529;-73
2022/05/31 11:21:42;;;;;;;0.70;0.10;;;21.30;99.90;;;;;;5050139;28;20916;-75
2022/05/31 11:24:27;;;;;;;3.10;2.93;;;21.30;99.90;;;;;;5035107;28;20854;-73
2022/05/31 11:27:10;;;;;;;0.70;0.20;;;21.20;99.90;;;;;;5041830;28;20458;-71
2022/05/31 11:30:09;;;;;;;0.70;0.10;;;21.20;99.90;;;;;;5051997;28;20453;-73
2022/05/31 11:33:09;;;;;;;0.70;0.10;;;21.30;99.90;;;;;;5035667;28;20474;-75
2022/05/31 11:35:49;;;;;;;0.70;0.10;;;21.40;99.90;;;;;;5030272;28;20463;-75
2022/05/31 11:38:22;;;;;;;0.70;0.20;;;21.40;99.90;;;;;;5034745;28;20447;-72
2022/05/31 11:40:59;;;;;;;0.70;0.10;;;21.40;99.90;;;;;;5035768;28;20471;-75
2022/05/31 11:44:00;;;;;;;0.70;0.20;;;21.40;99.90;;;;;;5044251;28;20475;-73
2022/05/31 11:46:36;;;;;;;0.70;0.13;;;21.50;99.90;;;;;;5054521;28;20497;-72
2022/05/31 11:49:06;;;;;;;0.70;0.10;;;21.40;99.90;;;;;;5054701;28;20449;-73
2022/05/31 11:52:00;;;;;;;0.70;0.10;;;21.40;99.90;;;;;;5055408;28;20442;-74
2022/05/31 11:57:55;;;;;;;0.70;0.10;;;21.50;99.90;;;;;;5034913;28;20457;-72
2022/05/31 12:00:23;;;;;;;0.70;0.20;;;21.70;99.90;;;;;;5035489;28;20448;-73
2022/05/31 12:02:57;;;;;;;0.70;0.10;;;21.70;99.90;;;;;;5054305;28;20803;-73
2022/05/31 12:05:29;;;;;;;0.70;0.10;;;21.80;99.90;;;;;;5054073;28;20482;-73
2022/05/31 12:08:03;;;;;;;0.97;0.50;;;21.80;99.90;;;;;;5042719;28;20450;-71
2022/05/31 12:10:38;;;;;;;0.70;0.20;;;21.40;99.90;;;;;;5035635;28;20443;-72
2022/05/31 12:13:10;;;;;;;0.70;0.10;;;21.40;99.90;;;;;;5035845;28;20450;-73
2022/05/31 12:15:42;;;;;;;0.70;0.20;;;21.50;99.90;;;;;;5034243;28;20478;-71
2022/05/31 12:18:21;;;;;;;0.70;0.10;;;21.50;99.90;;;;;;5047477;28;20446;-71
2022/05/31 12:20:54;;;;;;;0.70;0.10;;;21.60;99.90;;;;;;5053583;28;20975;-72
2022/05/31 12:23:32;;;;;;;0.70;0.20;;;21.90;99.90;;;;;;5053625;28;20569;-72
2022/05/31 12:26:02;;;;;;;0.70;0.10;;;22.10;99.90;;;;;;5052393;28;20470;-73
2022/05/31 12:28:38;;;;;;;0.70;0.20;;;22.10;99.90;;;;;;5052974;28;20438;-72
2022/05/31 12:31:10;;;;;;;0.70;0.10;;;22.10;99.90;;;;;;5047499;28;20455;-71
2022/05/31 12:33:43;;;;;;;0.70;0.10;;;22.10;99.90;;;;;;5033464;28;20475;-72
2022/05/31 12:36:13;;;;;;;0.70;0.10;;;22.20;99.90;;;;;;5034245;28;20848;-73
2022/05/31 12:39:06;;;;;;;0.80;0.40;;;22.20;99.90;;;;;;5034724;28;20448;-72
2022/05/31 12:41:37;;;;;;;1.07;0.37;;;22.30;99.90;;;;;;5034648;28;20444;-72
2022/05/31 12:44:10;;;;;;;0.70;0.10;;;22.40;99.90;;;;;;5043523;28;20487;-71
2022/05/31 12:46:41;;;;;;;0.70;0.10;;;22.10;99.90;;;;;;5046000;28;20467;-71
2022/05/31 12:49:21;;;;;;;0.80;0.40;;;22.10;99.90;;;;;;5053038;28;20446;-71
2022/05/31 12:52:20;;;;;;;0.70;0.23;;;22.10;99.90;;;;;;5055309;28;20438;-72
2022/05/31 12:54:49;;;;;;;2.10;0.83;;;21.90;99.90;;;;;;5055302;28;20459;-72
2022/05/31 12:58:26;;;;;;;0.70;0.20;;;21.90;99.90;;;;;;5053959;28;20966;-73
2022/05/31 13:00:43;;;;;;;0.80;0.40;;;22.00;99.90;;;;;;5050135;28;20458;-73
2022/05/31 13:03:44;;;;;;;0.93;0.47;;;22.00;99.90;;;;;;5055774;28;20438;-70
2022/05/31 13:06:18;;;;;;;0.70;0.20;;;21.60;99.90;;;;;;5054232;28;20470;-71
2022/05/31 13:08:55;;;;;;;1.10;0.53;;;21.60;99.90;;;;;;5054635;28;20564;-71
2022/05/31 13:20:11;;;;;;;1.77;0.93;;;21.70;99.90;;;;;;5033178;28;20443;-73
2022/05/31 13:22:44;;;;;;;0.70;0.10;;;21.80;99.90;;;;;;5033097;28;20443;-71
2022/05/31 13:25:29;;;;;;;0.70;0.20;;;22.00;99.90;;;;;;5053085;28;20486;-74
2022/05/31 13:28:00;;;;;;;0.70;0.20;;;22.20;99.90;;;;;;5040768;28;20577;-72
2022/05/31 13:30:31;;;;;;;0.70;0.20;;;22.30;99.90;;;;;;5035543;28;20471;-71
2022/05/31 13:33:09;;;;;;;0.70;0.40;;;22.40;99.90;;;;;;5035972;28;20513;-73
2022/05/31 13:35:37;;;;;;;0.80;0.60;;;22.30;99.90;;;;;;5033311;28;20467;-77
2022/05/31 13:38:14;;;;;;;0.70;0.10;;;22.30;99.90;;;;;;5035547;28;20543;-76
2022/05/31 13:40:46;;;;;;;0.70;0.10;;;22.50;99.90;;;;;;5035545;28;20457;-77
2022/05/31 13:43:20;;;;;;;0.70;0.20;;;22.60;99.90;;;;;;5036287;28;20527;-77
2022/05/31 13:45:51;;;;;;;0.80;0.30;;;22.60;99.90;;;;;;5036674;28;20850;-76
2022/05/31 13:48:21;;;;;;;0.70;0.10;;;22.60;99.90;;;;;;5035240;28;20447;-78
2022/05/31 13:50:56;;;;;;;0.80;0.30;;;22.70;99.90;;;;;;5052671;28;20509;-76
2022/05/31 13:53:35;;;;;;;0.70;0.13;;;22.50;99.90;;;;;;5055651;28;20434;-79